GLD1386 SBPJ-SBSN
Flight info
| Callsign | GLD1386 |
|---|---|
| Flight time | N/A |
| Altitude | 38000 |
| Route | OPNUP UL576 SUDRO UZ9 RONUB UL452 TORAX |
| Aircraft | B738/M-SDE2E3FGHIRWXY/LB1 |
Departure
| Time | 2026-04-19 01:26 |
|---|---|
| Airport | Brigadeiro Lysias Rodrigues Airport (SBPJ) |
Arrival
| Time | N/A |
|---|---|
| Airport | Santarém - Maestro Wilson Fonseca International Airport (SBSN) |
| Time | Latitude | Longitude | Altitude | Speed | Heading |
|---|---|---|---|---|---|
| 2026-04-19 00:19 | -10.29463 | -48.35775 | 782 ft | 0 kts | 213° |
| 2026-04-19 01:14 | -10.29456 | -48.35770 | 782 ft | 2 kts | 213° |
| 2026-04-19 01:14 | -10.29443 | -48.35762 | 782 ft | 2 kts | 213° |
| 2026-04-19 01:15 | -10.29432 | -48.35752 | 782 ft | 2 kts | 238° |
| 2026-04-19 01:15 | -10.29426 | -48.35738 | 782 ft | 2 kts | 259° |
| 2026-04-19 01:15 | -10.29426 | -48.35722 | 782 ft | 2 kts | 281° |
| 2026-04-19 01:15 | -10.29430 | -48.35709 | 782 ft | 0 kts | 301° |
| 2026-04-19 01:16 | -10.29434 | -48.35704 | 782 ft | 1 kts | 304° |
| 2026-04-19 01:16 | -10.29434 | -48.35703 | 782 ft | 0 kts | 304° |
| 2026-04-19 01:18 | -10.29428 | -48.35713 | 782 ft | 3 kts | 304° |
| 2026-04-19 01:18 | -10.29407 | -48.35743 | 782 ft | 6 kts | 304° |
| 2026-04-19 01:18 | -10.29379 | -48.35785 | 782 ft | 7 kts | 304° |
| 2026-04-19 01:19 | -10.29363 | -48.35809 | 782 ft | 0 kts | 309° |
| 2026-04-19 01:19 | -10.29362 | -48.35811 | 782 ft | 1 kts | 309° |
| 2026-04-19 01:19 | -10.29332 | -48.35818 | 782 ft | 6 kts | 17° |
| 2026-04-19 01:19 | -10.29284 | -48.35791 | 782 ft | 6 kts | 31° |
| 2026-04-19 01:20 | -10.29259 | -48.35775 | 782 ft | 2 kts | 31° |
| 2026-04-19 01:20 | -10.29257 | -48.35774 | 782 ft | 0 kts | 31° |
| 2026-04-19 01:20 | -10.29255 | -48.35773 | 782 ft | 1 kts | 31° |
| 2026-04-19 01:21 | -10.29231 | -48.35758 | 782 ft | 5 kts | 33° |
| 2026-04-19 01:21 | -10.29191 | -48.35731 | 782 ft | 7 kts | 33° |
| 2026-04-19 01:21 | -10.29137 | -48.35735 | 782 ft | 8 kts | 321° |
| 2026-04-19 01:21 | -10.29099 | -48.35788 | 782 ft | 10 kts | 303° |
| 2026-04-19 01:22 | -10.29058 | -48.35851 | 782 ft | 10 kts | 303° |
| 2026-04-19 01:22 | -10.29016 | -48.35917 | 782 ft | 11 kts | 303° |
| 2026-04-19 01:22 | -10.28970 | -48.35989 | 782 ft | 12 kts | 302° |
| 2026-04-19 01:22 | -10.28923 | -48.36064 | 782 ft | 12 kts | 302° |
| 2026-04-19 01:23 | -10.28873 | -48.36144 | 782 ft | 13 kts | 302° |
| 2026-04-19 01:23 | -10.28822 | -48.36228 | 782 ft | 13 kts | 303° |
| 2026-04-19 01:23 | -10.28769 | -48.36310 | 782 ft | 13 kts | 303° |
| 2026-04-19 01:23 | -10.28715 | -48.36393 | 782 ft | 14 kts | 303° |
| 2026-04-19 01:24 | -10.28659 | -48.36481 | 782 ft | 14 kts | 302° |
| 2026-04-19 01:24 | -10.28606 | -48.36566 | 782 ft | 8 kts | 301° |
| 2026-04-19 01:24 | -10.28592 | -48.36630 | 782 ft | 9 kts | 293° |
| 2026-04-19 01:24 | -10.28553 | -48.36639 | 782 ft | 2 kts | 81° |
| 2026-04-19 01:25 | -10.28565 | -48.36610 | 782 ft | 6 kts | 123° |
| 2026-04-19 01:25 | -10.28638 | -48.36500 | 782 ft | 45 kts | 123° |
| 2026-04-19 01:25 | -10.28969 | -48.35986 | 782 ft | 120 kts | 123° |
| 2026-04-19 01:25 | -10.29561 | -48.35087 | 849 ft | 172 kts | 124° |
| 2026-04-19 01:26 | -10.30249 | -48.34031 | 1429 ft | 181 kts | 124° |
| 2026-04-19 01:26 | -10.30902 | -48.33054 | 2539 ft | 157 kts | 125° |
| 2026-04-19 01:26 | -10.31557 | -48.32059 | 2860 ft | 178 kts | 124° |
| 2026-04-19 01:26 | -10.32273 | -48.30960 | 3181 ft | 197 kts | 124° |
| 2026-04-19 01:27 | -10.33101 | -48.29692 | 3471 ft | 220 kts | 124° |
| 2026-04-19 01:27 | -10.34014 | -48.28299 | 3787 ft | 240 kts | 124° |
| 2026-04-19 01:27 | -10.34779 | -48.26759 | 4346 ft | 247 kts | 109° |
| 2026-04-19 01:27 | -10.34929 | -48.26156 | 4569 ft | 248 kts | 101° |